This is the latest recevied weather packets stored in our database for station/object CQ0XPG-11. If no packets are shown the sender has not sent any weather packets the latest 10 day(s).
| Time | Temp. | Humidity | Pressure | Rain* | Wind** | Luminosity | Snow |
|---|---|---|---|---|---|---|---|
| 1777922866 | 12.78° C | 100% | 1007.3 hPa | 0 mm | - | - | - |
| 1777920454 | 14.44° C | 73% | 1006.8 hPa | 0 mm | - | - | - |
| 1777920143 | 14.44° C | 73% | 1006.8 hPa | 0 mm | - | - | - |
| 1777919834 | 14.44° C | 73% | 1006.8 hPa | 0 mm | - | - | - |
| 1777919227 | 15° C | 68% | 1006.8 hPa | 0 mm | - | - | - |
| 1777918941 | 15° C | 69% | 1006.7 hPa | 0 mm | - | - | - |
| 1777918643 | 15° C | 68% | 1006.8 hPa | 0 mm | - | - | - |
| 1777918346 | 15° C | 65% | 1006.8 hPa | 0 mm | - | - | - |
| 1777918010 | 15.56° C | 63% | 1006.7 hPa | 0 mm | - | - | - |
| 1777917404 | 15.56° C | 61% | 1006.8 hPa | 0 mm | - | - | - |
| 1777916205 | 15.56° C | 61% | 1006.9 hPa | 0 mm | - | - | - |
| 1777915916 | 16.11° C | 59% | 1006.9 hPa | 0 mm | - | - | - |
| 1777915589 | 16.11° C | 58% | 1006.9 hPa | 0 mm | - | - | - |
| 1777915006 | 16.11° C | 55% | 1006.8 hPa | 0 mm | - | - | - |
| 1777914683 | 16.11° C | 55% | 1006.8 hPa | 0 mm | - | - | - |
| 1777914377 | 16.11° C | 58% | 1006.9 hPa | 0 mm | - | - | - |
| 1777914109 | 16.11° C | 57% | 1006.7 hPa | 0 mm | - | - | - |
| 1777913770 | 15.56° C | 59% | 1006.7 hPa | 0 mm | - | - | - |
| 1777913190 | 15.56° C | 60% | 1006.6 hPa | 0 mm | - | - | - |
| 1777912871 | 15.56° C | 60% | 1006.6 hPa | 0 mm | - | - | - |
| 1777912557 | 15.56° C | 60% | 1006.6 hPa | 0 mm | - | - | - |
| 1777911951 | 15.56° C | 58% | 1006.4 hPa | 0 mm | - | - | - |
| 1777911660 | 15.56° C | 57% | 1006.3 hPa | 0 mm | - | - | - |
| 1777910738 | 15.56° C | 61% | 1006.4 hPa | 0 mm | - | - | - |
| 1777909547 | 15.56° C | 64% | 1006.4 hPa | 0 mm | - | - | - |
* Rain since midnight (hover to see other rain measurements)
** Current wind speed in m/s (hover to see current wind gust speed)